Terminal Aerodrome Forecast
Issued by NWS

Home | Current Version | Previous Version | Text Only | Print | Product List | Glossary On
Versions: 1 2 3 4 5 6 7 8 9 10 11 12 13 14 15
000
FTUS45 KMSO 250010 AAA
TAFSMN
TAF AMD
KSMN 250010Z 2500/2524 30008KT 1 1/2SM -SN BR BKN015 OVC020
     FM250300 34010KT 4SM -SHSN BR OVC030
     FM250900 VRB04KT 2SM -SHSN OVC020
     FM251600 VRB04KT P6SM VCSH BKN050
      AMD LTD TO CLD VIS AND WIND=

USA.gov is the U.S. government's official web portal to all federal, state and local government web resources and services.